Time;durP1;ratioP1;P1;durP2;ratioP2;P2;SDS_P1;SDS_P2;PMS_P1;PMS_P2;Temp;Humidity;BMP_temperature;BMP_pressure;BME280_temperature;BME280_humidity;BME280_pressure;Samples;Min_cycle;Max_cycle;Signal;HPM_P1;HPM_P2
2021/03/04 00:00:25;;;;;;;21.27;10.27;;;9.50;99.90;;;;;;5053488;28;20163;-77
2021/03/04 00:02:50;;;;;;;23.80;9.15;;;9.50;99.90;;;;;;5053485;28;20181;-78
2021/03/04 00:05:16;;;;;;;20.73;7.72;;;9.70;99.90;;;;;;5053291;28;20167;-77
2021/03/04 00:07:42;;;;;;;6.75;6.05;;;9.70;99.90;;;;;;5053663;28;20646;-78
2021/03/04 00:10:11;;;;;;;17.67;9.65;;;9.80;99.90;;;;;;5035394;28;20175;-78
2021/03/04 00:12:37;;;;;;;15.80;8.68;;;9.60;99.90;;;;;;5053250;28;20163;-78
2021/03/04 00:15:04;;;;;;;20.65;8.27;;;9.80;99.90;;;;;;5053551;28;20634;-78
2021/03/04 00:17:31;;;;;;;10.73;5.70;;;10.00;99.90;;;;;;5053722;28;20221;-78
2021/03/04 00:19:57;;;;;;;13.20;7.80;;;10.30;99.90;;;;;;5053639;28;20203;-77
2021/03/04 00:22:22;;;;;;;8.88;6.43;;;10.40;99.90;;;;;;5053333;28;20198;-77
2021/03/04 00:24:48;;;;;;;11.88;6.15;;;10.50;99.90;;;;;;5053334;28;20183;-77
2021/03/04 00:27:14;;;;;;;33.42;8.80;;;10.60;99.90;;;;;;5053141;28;20186;-78
2021/03/04 00:29:39;;;;;;;11.10;8.13;;;10.40;99.90;;;;;;5053071;28;20163;-77
2021/03/04 00:32:06;;;;;;;24.05;7.20;;;10.30;99.90;;;;;;5053123;28;20181;-76
2021/03/04 00:34:31;;;;;;;6.53;6.03;;;10.30;99.90;;;;;;5053043;28;20163;-75
2021/03/04 00:36:57;;;;;;;13.23;7.53;;;10.40;99.90;;;;;;5052990;28;20215;-77
2021/03/04 00:39:23;;;;;;;16.33;5.15;;;10.40;99.90;;;;;;5053063;28;20214;-77
2021/03/04 00:41:48;;;;;;;9.57;7.07;;;10.30;99.90;;;;;;5053230;28;20177;-78
2021/03/04 00:44:14;;;;;;;29.63;7.25;;;10.40;99.90;;;;;;5053123;28;20160;-78
2021/03/04 00:46:39;;;;;;;8.55;6.72;;;10.20;99.90;;;;;;5052985;28;20191;-78
2021/03/04 00:49:05;;;;;;;13.90;6.28;;;10.00;99.90;;;;;;5057141;28;20174;-78
2021/03/04 00:51:30;;;;;;;11.07;6.15;;;10.10;99.90;;;;;;5056959;28;20246;-78
2021/03/04 00:53:57;;;;;;;17.70;6.57;;;10.00;99.90;;;;;;5057428;28;20195;-78
2021/03/04 00:56:22;;;;;;;14.02;6.18;;;10.00;99.90;;;;;;5056685;28;20230;-78
2021/03/04 00:58:48;;;;;;;12.43;6.15;;;10.20;99.90;;;;;;5056798;28;20250;-78
2021/03/04 01:01:18;;;;;;;8.43;7.63;;;10.20;99.90;;;;;;5057265;28;20149;-78
2021/03/04 01:03:43;;;;;;;17.65;8.65;;;10.10;99.90;;;;;;5057178;28;20253;-78
2021/03/04 01:06:09;;;;;;;25.67;6.65;;;10.20;99.90;;;;;;5056747;28;20206;-78
2021/03/04 01:08:35;;;;;;;6.72;5.25;;;9.90;99.90;;;;;;5057082;28;20186;-78
2021/03/04 01:11:00;;;;;;;18.63;10.75;;;9.80;99.90;;;;;;5056824;28;20246;-78
2021/03/04 01:13:26;;;;;;;12.20;6.60;;;9.70;99.90;;;;;;5056767;28;20167;-78
2021/03/04 01:15:53;;;;;;;17.95;8.15;;;10.00;99.90;;;;;;5056651;28;20167;-78
2021/03/04 01:18:19;;;;;;;31.98;5.55;;;10.30;99.90;;;;;;5056935;28;20225;-77
2021/03/04 01:20:45;;;;;;;24.48;9.70;;;10.60;99.90;;;;;;5056690;28;20610;-79
2021/03/04 01:23:10;;;;;;;14.38;8.63;;;10.40;99.90;;;;;;5056598;28;20171;-77
2021/03/04 01:25:36;;;;;;;10.18;8.63;;;10.30;99.90;;;;;;5056753;28;20320;-77
2021/03/04 01:28:02;;;;;;;35.60;7.72;;;10.20;99.90;;;;;;5056872;28;20249;-79
2021/03/04 01:30:33;;;;;;;21.38;6.07;;;10.00;99.90;;;;;;5056423;28;20239;-77
2021/03/04 01:32:59;;;;;;;10.30;6.10;;;10.00;99.90;;;;;;5056060;28;20543;-78
2021/03/04 01:35:25;;;;;;;10.18;6.28;;;10.20;99.90;;;;;;5055817;28;20259;-77
2021/03/04 01:37:51;;;;;;;10.52;4.72;;;10.10;99.90;;;;;;5038366;28;20356;-78
2021/03/04 01:40:21;;;;;;;8.35;4.07;;;10.20;99.90;;;;;;5056311;28;20622;-77
2021/03/04 01:42:47;;;;;;;4.55;4.05;;;10.10;99.90;;;;;;5056258;28;20174;-78
2021/03/04 01:45:13;;;;;;;11.52;7.65;;;10.20;99.90;;;;;;5056443;28;20167;-77
2021/03/04 01:47:41;;;;;;;9.35;6.75;;;10.10;99.90;;;;;;5056172;28;20194;-77
2021/03/04 01:50:08;;;;;;;12.70;6.18;;;9.80;99.90;;;;;;5055944;28;20189;-78
2021/03/04 01:52:34;;;;;;;9.45;4.82;;;9.80;99.90;;;;;;5056014;28;20178;-78
2021/03/04 01:55:00;;;;;;;11.10;5.10;;;9.80;99.90;;;;;;5056336;28;20611;-78
2021/03/04 01:57:30;;;;;;;11.60;4.93;;;9.60;99.90;;;;;;5062074;28;20226;-78
2021/03/04 01:59:56;;;;;;;11.43;4.18;;;9.30;99.90;;;;;;5068798;28;20167;-78
2021/03/04 02:02:22;;;;;;;5.90;5.35;;;9.10;99.90;;;;;;5068298;28;20185;-78
2021/03/04 02:04:50;;;;;;;6.90;5.18;;;9.10;99.90;;;;;;5056290;28;20151;-78
2021/03/04 02:07:40;;;;;;;16.63;4.78;;;9.30;99.90;;;;;;5055923;28;20198;-78
2021/03/04 02:10:20;;;;;;;8.35;4.88;;;9.30;99.90;;;;;;5055714;28;20168;-78
2021/03/04 02:13:13;;;;;;;29.17;4.90;;;9.50;99.90;;;;;;5037822;28;20174;-78
2021/03/04 02:15:56;;;;;;;8.38;5.20;;;9.50;99.90;;;;;;5055526;28;20175;-77
2021/03/04 02:18:25;;;;;;;2.88;2.67;;;9.40;99.90;;;;;;5055475;28;20179;-78
2021/03/04 02:20:57;;;;;;;12.63;6.30;;;9.30;99.90;;;;;;5055627;28;20167;-79
2021/03/04 02:24:00;;;;;;;10.18;4.60;;;9.40;99.90;;;;;;5055294;28;20226;-79
2021/03/04 02:26:46;;;;;;;3.67;3.30;;;9.50;99.90;;;;;;5055509;28;20654;-78
2021/03/04 02:29:18;;;;;;;15.63;4.93;;;9.60;99.90;;;;;;5055487;28;20452;-78
2021/03/04 02:31:45;;;;;;;12.05;4.80;;;9.60;99.90;;;;;;5055232;28;20584;-78
2021/03/04 02:34:13;;;;;;;4.15;3.78;;;9.30;99.90;;;;;;5055291;28;20197;-78
2021/03/04 02:36:40;;;;;;;3.80;3.50;;;9.50;99.90;;;;;;5055164;28;20262;-78
2021/03/04 02:39:07;;;;;;;37.60;5.55;;;9.80;99.90;;;;;;5037314;28;20187;-78
2021/03/04 02:41:35;;;;;;;6.47;4.78;;;10.00;99.90;;;;;;5055027;28;20163;-78
2021/03/04 02:44:07;;;;;;;3.20;2.83;;;10.00;99.90;;;;;;5054947;28;20167;-77
2021/03/04 02:46:34;;;;;;;9.75;5.47;;;10.00;99.90;;;;;;5054957;28;20264;-79
2021/03/04 02:49:01;;;;;;;3.70;3.00;;;10.20;99.90;;;;;;5054915;28;20221;-78
2021/03/04 02:51:30;;;;;;;13.65;6.57;;;10.20;99.90;;;;;;5054808;28;20155;-79
2021/03/04 02:53:56;;;;;;;4.78;4.32;;;10.20;99.90;;;;;;5054850;28;20247;-78
2021/03/04 02:56:24;;;;;;;7.63;5.03;;;10.40;99.90;;;;;;5054568;28;20542;-78
2021/03/04 02:58:51;;;;;;;5.68;4.90;;;10.40;99.90;;;;;;5054568;28;20576;-78
2021/03/04 03:01:20;;;;;;;3.10;2.80;;;10.20;99.90;;;;;;5055027;28;20156;-79
2021/03/04 03:03:48;;;;;;;6.07;3.10;;;10.00;99.90;;;;;;5054601;28;20600;-80
2021/03/04 03:06:15;;;;;;;5.90;3.55;;;9.80;99.90;;;;;;5054377;28;20258;-78
2021/03/04 03:08:40;;;;;;;11.73;4.65;;;9.90;99.90;;;;;;5054651;28;20224;-79
2021/03/04 03:11:08;;;;;;;7.00;4.07;;;9.70;99.90;;;;;;5053614;28;20168;-79
2021/03/04 03:13:33;;;;;;;7.60;6.75;;;9.70;99.90;;;;;;5054501;28;20171;-78
2021/03/04 03:15:59;;;;;;;4.07;3.72;;;9.60;99.90;;;;;;5054281;28;20194;-78
2021/03/04 03:18:25;;;;;;;8.93;3.42;;;10.00;99.90;;;;;;5054496;28;20171;-78
2021/03/04 03:20:50;;;;;;;4.15;3.80;;;10.00;99.90;;;;;;5054340;28;20629;-77
2021/03/04 03:23:16;;;;;;;7.22;3.35;;;9.90;99.90;;;;;;5054306;28;20652;-78
2021/03/04 03:25:41;;;;;;;14.25;5.50;;;10.00;99.90;;;;;;5054258;28;20170;-78
2021/03/04 03:28:07;;;;;;;7.13;5.38;;;9.90;99.90;;;;;;5054144;28;20167;-78
2021/03/04 03:30:33;;;;;;;6.20;3.78;;;9.90;99.90;;;;;;5054100;28;20193;-78
2021/03/04 03:33:02;;;;;;;9.90;3.60;;;9.70;99.90;;;;;;5054285;28;20159;-78
2021/03/04 03:35:28;;;;;;;10.35;3.70;;;9.70;99.90;;;;;;5054445;28;20186;-76
2021/03/04 03:37:55;;;;;;;4.85;2.50;;;9.80;99.90;;;;;;5054219;28;20207;-78
2021/03/04 03:40:23;;;;;;;6.65;4.07;;;9.80;99.90;;;;;;5053894;28;20167;-79
2021/03/04 03:42:50;;;;;;;6.25;5.40;;;9.70;99.90;;;;;;5054520;28;20665;-79
2021/03/04 03:45:19;;;;;;;8.05;4.32;;;9.90;99.90;;;;;;5054855;28;20563;-79
2021/03/04 03:47:46;;;;;;;5.03;4.00;;;9.70;99.90;;;;;;5054847;28;20230;-78
2021/03/04 03:50:16;;;;;;;3.53;2.35;;;9.50;99.90;;;;;;5054584;28;20550;-78
2021/03/04 03:52:43;;;;;;;3.80;3.50;;;9.40;99.90;;;;;;5054364;28;20183;-78
2021/03/04 03:55:10;;;;;;;11.75;5.80;;;9.20;99.90;;;;;;5054251;28;20182;-78
2021/03/04 03:57:38;;;;;;;5.13;3.88;;;9.40;99.90;;;;;;5053930;28;20219;-76
2021/03/04 04:00:05;;;;;;;9.52;4.72;;;9.60;99.90;;;;;;5054197;28;20250;-79
2021/03/04 04:02:31;;;;;;;13.77;7.97;;;9.50;99.90;;;;;;5054141;28;20167;-78
2021/03/04 04:04:57;;;;;;;6.00;5.53;;;9.20;99.90;;;;;;5054195;28;20163;-78
2021/03/04 04:07:23;;;;;;;2.53;2.38;;;9.30;99.90;;;;;;5054014;28;20213;-79
2021/03/04 04:09:49;;;;;;;4.30;2.83;;;9.30;99.90;;;;;;5054041;28;20174;-79
2021/03/04 04:12:15;;;;;;;7.82;4.90;;;9.20;99.90;;;;;;5053840;28;20167;-79
2021/03/04 04:14:41;;;;;;;14.05;4.70;;;9.20;99.90;;;;;;5054268;28;20162;-81
2021/03/04 04:17:07;;;;;;;9.23;4.78;;;9.20;99.90;;;;;;5054051;28;20203;-79
2021/03/04 04:19:35;;;;;;;5.60;3.28;;;9.40;99.90;;;;;;5053867;28;20249;-79
2021/03/04 04:22:00;;;;;;;18.00;4.95;;;9.40;99.90;;;;;;5053643;28;20182;-79
2021/03/04 04:24:26;;;;;;;3.53;3.22;;;9.10;99.90;;;;;;5058123;28;20499;-79
2021/03/04 04:26:52;;;;;;;24.30;6.97;;;8.90;99.90;;;;;;5061524;28;20274;-77
2021/03/04 04:29:17;;;;;;;24.83;4.38;;;8.90;99.90;;;;;;5063739;28;20634;-78
2021/03/04 04:31:43;;;;;;;6.43;3.30;;;8.80;99.90;;;;;;5058359;28;20171;-79
2021/03/04 04:34:08;;;;;;;10.50;5.15;;;9.00;99.90;;;;;;5056328;28;20539;-80
2021/03/04 04:36:34;;;;;;;6.82;4.40;;;9.10;99.90;;;;;;5055679;28;20209;-78
2021/03/04 04:39:00;;;;;;;6.25;3.58;;;9.20;99.90;;;;;;5058697;28;20175;-78
2021/03/04 04:41:25;;;;;;;16.30;4.45;;;9.10;99.90;;;;;;5054171;28;20152;-79
2021/03/04 04:43:51;;;;;;;7.75;4.68;;;9.00;99.90;;;;;;5053574;28;20174;-78
2021/03/04 04:46:16;;;;;;;7.50;5.57;;;9.10;99.90;;;;;;5053699;28;20262;-78
2021/03/04 04:48:43;;;;;;;8.98;4.15;;;8.90;99.90;;;;;;5053593;28;20178;-79
2021/03/04 04:51:13;;;;;;;8.85;4.43;;;8.70;99.90;;;;;;5057754;28;20148;-79
2021/03/04 04:53:39;;;;;;;8.10;4.43;;;8.30;99.90;;;;;;5062198;28;20561;-79
2021/03/04 04:56:05;;;;;;;6.10;5.63;;;8.30;99.90;;;;;;5061756;28;20183;-78
2021/03/04 04:58:31;;;;;;;13.40;8.35;;;8.30;99.90;;;;;;5061852;28;20215;-79
2021/03/04 05:00:56;;;;;;;12.55;6.70;;;8.30;99.90;;;;;;5062130;28;20622;-79
2021/03/04 05:03:23;;;;;;;9.90;6.75;;;8.50;99.90;;;;;;5061131;28;20540;-79
2021/03/04 05:05:49;;;;;;;13.82;6.80;;;8.50;99.90;;;;;;5061746;28;20191;-78
2021/03/04 05:08:14;;;;;;;20.23;6.97;;;8.50;99.90;;;;;;5062161;28;20641;-78
2021/03/04 05:10:40;;;;;;;9.50;6.35;;;8.40;99.90;;;;;;5061357;28;20164;-78
2021/03/04 05:13:05;;;;;;;12.02;4.53;;;8.40;99.90;;;;;;5061108;28;20688;-78
2021/03/04 05:15:31;;;;;;;22.23;4.40;;;8.40;99.90;;;;;;5061721;28;20590;-79
2021/03/04 05:17:57;;;;;;;10.45;5.40;;;8.50;99.90;;;;;;5061356;28;20195;-79
2021/03/04 05:20:22;;;;;;;6.38;5.80;;;8.60;99.90;;;;;;5061646;28;20196;-78
2021/03/04 05:22:48;;;;;;;10.65;6.00;;;8.60;99.90;;;;;;5061806;28;20177;-78
2021/03/04 05:25:15;;;;;;;12.40;5.80;;;8.70;99.90;;;;;;5054382;28;20179;-77
2021/03/04 05:27:40;;;;;;;20.08;5.78;;;8.50;99.90;;;;;;5053128;28;20246;-78
2021/03/04 05:30:06;;;;;;;11.57;5.28;;;8.80;99.90;;;;;;5053430;28;20190;-78
2021/03/04 05:32:32;;;;;;;23.00;9.02;;;9.00;99.90;;;;;;5053661;28;20171;-79
2021/03/04 05:34:58;;;;;;;28.88;5.38;;;9.10;99.90;;;;;;5057362;28;20170;-77
2021/03/04 05:37:23;;;;;;;5.82;5.13;;;8.80;99.90;;;;;;5039316;28;20260;-76
2021/03/04 05:39:49;;;;;;;7.95;4.22;;;8.50;99.90;;;;;;5056932;28;20164;-78
2021/03/04 05:42:14;;;;;;;14.15;6.53;;;8.50;99.90;;;;;;5056520;28;20588;-79
2021/03/04 05:44:42;;;;;;;9.43;5.18;;;8.60;99.90;;;;;;5056725;28;20174;-78
2021/03/04 05:47:09;;;;;;;13.68;7.32;;;8.70;99.90;;;;;;5057007;28;20187;-78
2021/03/04 05:49:44;;;;;;;3.00;2.80;;;8.60;99.90;;;;;;5057877;28;20605;-79
2021/03/04 05:52:13;;;;;;;9.93;4.93;;;8.60;99.90;;;;;;5057219;28;20165;-79
2021/03/04 05:54:42;;;;;;;8.63;6.50;;;8.80;99.90;;;;;;5057623;28;20521;-79
2021/03/04 05:57:08;;;;;;;12.75;3.08;;;8.80;99.90;;;;;;5056578;28;20229;-80
2021/03/04 05:59:35;;;;;;;12.30;5.78;;;8.90;99.90;;;;;;5056750;28;20159;-80
2021/03/04 06:02:05;;;;;;;8.00;5.28;;;8.90;99.90;;;;;;5056595;28;20171;-79
2021/03/04 06:04:31;;;;;;;15.82;7.57;;;9.10;99.90;;;;;;5056833;28;20155;-78
2021/03/04 06:06:56;;;;;;;16.65;5.63;;;9.10;99.90;;;;;;5056486;28;20289;-81
2021/03/04 06:09:22;;;;;;;10.52;7.13;;;9.20;99.90;;;;;;5057354;28;20229;-77
2021/03/04 06:11:47;;;;;;;16.75;8.13;;;9.00;99.90;;;;;;5057095;28;20171;-77
2021/03/04 06:14:14;;;;;;;11.43;4.05;;;9.10;99.90;;;;;;5057749;28;20521;-79
2021/03/04 06:16:40;;;;;;;9.02;5.45;;;9.00;99.90;;;;;;5056962;28;20203;-78
2021/03/04 06:19:05;;;;;;;13.98;6.53;;;8.80;99.90;;;;;;5056449;28;20690;-80
2021/03/04 06:21:31;;;;;;;10.15;4.75;;;8.90;99.90;;;;;;5056297;28;20266;-78
2021/03/04 06:23:57;;;;;;;12.32;7.18;;;9.00;99.90;;;;;;5056365;28;20334;-79
2021/03/04 06:26:36;;;;;;;21.98;7.05;;;9.30;99.90;;;;;;5056707;28;20198;-79
2021/03/04 06:29:15;;;;;;;13.70;4.35;;;9.50;99.90;;;;;;5056661;28;20179;-79
2021/03/04 06:31:41;;;;;;;6.47;4.20;;;9.50;99.90;;;;;;5057622;28;20158;-79
2021/03/04 06:34:21;;;;;;;21.27;8.10;;;9.30;99.90;;;;;;5056912;28;20246;-79
2021/03/04 06:36:54;;;;;;;11.80;5.32;;;9.20;99.90;;;;;;5059685;28;20712;-79
2021/03/04 06:39:19;;;;;;;7.70;6.25;;;9.20;99.90;;;;;;5059322;28;20638;-77
2021/03/04 06:41:45;;;;;;;26.23;8.88;;;9.20;99.90;;;;;;5058894;28;20164;-79
2021/03/04 06:44:11;;;;;;;30.05;5.13;;;9.10;99.90;;;;;;5057498;28;20164;-78
2021/03/04 06:46:44;;;;;;;14.20;7.63;;;8.90;99.90;;;;;;5055912;28;20716;-79
2021/03/04 06:49:09;;;;;;;11.27;6.47;;;8.80;99.90;;;;;;5057158;28;20175;-78
2021/03/04 06:51:42;;;;;;;30.02;7.90;;;8.60;99.90;;;;;;5057860;28;20229;-78
2021/03/04 06:54:08;;;;;;;13.40;5.57;;;8.80;99.90;;;;;;5056940;28;20209;-82
2021/03/04 06:56:34;;;;;;;37.38;6.30;;;8.70;99.90;;;;;;5059133;28;20274;-78
2021/03/04 06:59:01;;;;;;;20.70;7.45;;;8.60;99.90;;;;;;5066246;28;20207;-78
2021/03/04 07:01:27;;;;;;;18.15;11.02;;;8.60;99.90;;;;;;5046063;28;20168;-80
2021/03/04 07:03:54;;;;;;;15.48;6.88;;;8.50;99.90;;;;;;5062578;28;20294;-79
2021/03/04 07:06:25;;;;;;;14.23;6.10;;;8.60;99.90;;;;;;5054331;28;20214;-76
2021/03/04 07:08:52;;;;;;;8.40;5.75;;;8.70;99.90;;;;;;5054529;28;20536;-76
2021/03/04 07:11:22;;;;;;;48.85;7.10;;;8.80;99.90;;;;;;5054470;28;20174;-76
2021/03/04 07:13:49;;;;;;;13.63;7.22;;;8.60;99.90;;;;;;5054140;28;20170;-76
2021/03/04 07:16:18;;;;;;;12.68;4.10;;;8.50;99.90;;;;;;5054166;28;20198;-76
2021/03/04 07:18:49;;;;;;;46.17;8.88;;;8.10;99.90;;;;;;5054150;28;20167;-77
2021/03/04 07:21:18;;;;;;;17.60;6.82;;;8.20;99.90;;;;;;5054049;28;20155;-77
2021/03/04 07:23:46;;;;;;;4.03;2.45;;;8.20;99.90;;;;;;5053988;28;20221;-76
2021/03/04 07:26:13;;;;;;;3.95;2.88;;;8.20;99.90;;;;;;5054120;28;20218;-76
2021/03/04 07:28:41;;;;;;;5.63;2.10;;;8.30;99.90;;;;;;5053914;28;20163;-77
2021/03/04 07:31:09;;;;;;;2.13;1.25;;;8.30;99.90;;;;;;5053704;28;20160;-75
2021/03/04 07:33:36;;;;;;;5.57;3.63;;;8.20;99.90;;;;;;5053501;28;20664;-77
2021/03/04 07:36:10;;;;;;;6.68;3.78;;;8.10;99.90;;;;;;5053415;28;20199;-76
2021/03/04 07:38:36;;;;;;;7.00;2.97;;;8.10;99.90;;;;;;5053600;28;20630;-77
2021/03/04 07:41:13;;;;;;;1.73;1.63;;;8.30;99.90;;;;;;5053745;28;20231;-78
2021/03/04 07:43:55;;;;;;;6.93;3.10;;;8.40;99.90;;;;;;5053931;28;20254;-78
2021/03/04 07:46:31;;;;;;;1.13;1.00;;;8.50;99.90;;;;;;5035596;28;20256;-77
2021/03/04 07:48:57;;;;;;;23.60;2.30;;;8.70;99.90;;;;;;5053467;28;20166;-77
2021/03/04 07:51:23;;;;;;;1.58;1.48;;;8.60;99.90;;;;;;5053949;28;20626;-77
2021/03/04 07:53:49;;;;;;;10.57;2.80;;;8.60;99.90;;;;;;5054523;28;20200;-77
2021/03/04 07:56:28;;;;;;;6.28;3.97;;;8.50;99.90;;;;;;5053222;28;20654;-77
2021/03/04 07:59:06;;;;;;;13.07;5.82;;;8.50;99.90;;;;;;5053581;28;20182;-80
2021/03/04 08:01:32;;;;;;;5.63;3.55;;;8.50;99.90;;;;;;5053526;28;20156;-79
2021/03/04 08:03:57;;;;;;;20.83;4.45;;;8.50;99.90;;;;;;5053582;28;20171;-80
2021/03/04 08:06:23;;;;;;;11.25;2.95;;;8.50;99.90;;;;;;5055643;28;20187;-80
2021/03/04 08:08:49;;;;;;;4.38;3.58;;;8.80;99.90;;;;;;5055093;28;20254;-85
2021/03/04 08:11:28;;;;;;;1.95;1.85;;;8.70;99.90;;;;;;5053190;28;20630;-77
2021/03/04 08:13:55;;;;;;;3.67;3.22;;;8.60;99.90;;;;;;5053691;28;20216;-77
2021/03/04 08:16:20;;;;;;;6.72;3.08;;;8.60;99.90;;;;;;5054028;28;20179;-77
2021/03/04 08:18:53;;;;;;;5.10;4.43;;;8.80;99.90;;;;;;5053406;28;20163;-78
2021/03/04 08:21:19;;;;;;;3.22;2.30;;;8.50;99.90;;;;;;5053253;28;20231;-77
2021/03/04 08:23:45;;;;;;;1.52;1.48;;;8.50;99.90;;;;;;5053459;28;20224;-77
2021/03/04 08:26:22;;;;;;;2.85;2.28;;;8.30;99.90;;;;;;5052836;28;20333;-77
2021/03/04 08:28:49;;;;;;;0.93;0.93;;;8.30;99.90;;;;;;5053048;28;20175;-77
2021/03/04 08:31:15;;;;;;;23.08;4.75;;;8.40;99.90;;;;;;5053521;28;20182;-82
2021/03/04 08:33:41;;;;;;;3.20;2.80;;;8.40;99.90;;;;;;5052550;28;20250;-77
2021/03/04 08:36:07;;;;;;;2.78;2.28;;;8.50;99.90;;;;;;5053284;28;20208;-78
2021/03/04 08:38:40;;;;;;;2.70;1.40;;;8.40;99.90;;;;;;5053563;28;20211;-75
2021/03/04 08:41:06;;;;;;;2.65;2.42;;;8.60;99.90;;;;;;5052733;28;20649;-76
2021/03/04 08:43:31;;;;;;;3.38;3.05;;;8.40;99.90;;;;;;5052946;28;20175;-76
2021/03/04 08:46:08;;;;;;;2.13;1.52;;;8.20;99.90;;;;;;5052568;28;20276;-76
2021/03/04 08:48:41;;;;;;;6.75;3.15;;;8.10;99.90;;;;;;5035443;28;20224;-78
2021/03/04 08:51:07;;;;;;;1.20;1.20;;;8.20;99.90;;;;;;5052766;28;20159;-76
2021/03/04 08:53:34;;;;;;;4.30;1.63;;;8.20;99.90;;;;;;5062522;28;20550;-77
2021/03/04 08:56:02;;;;;;;5.85;2.53;;;8.40;99.90;;;;;;5072606;28;20193;-77
2021/03/04 08:58:29;;;;;;;2.03;1.92;;;8.50;99.90;;;;;;5072528;28;20349;-78
2021/03/04 09:00:57;;;;;;;2.92;2.72;;;8.50;99.90;;;;;;5072656;28;20205;-77
2021/03/04 09:03:23;;;;;;;3.45;2.70;;;8.60;99.90;;;;;;5072809;28;20575;-77
2021/03/04 09:05:50;;;;;;;4.72;4.05;;;8.40;99.90;;;;;;5072224;28;20170;-76
2021/03/04 09:08:17;;;;;;;7.10;2.47;;;8.30;99.90;;;;;;5070904;28;20174;-77
2021/03/04 09:10:50;;;;;;;7.13;4.22;;;8.30;99.90;;;;;;5056028;28;20302;-78
2021/03/04 09:13:35;;;;;;;10.68;4.05;;;8.20;99.90;;;;;;5054444;28;20579;-78
2021/03/04 09:16:06;;;;;;;17.33;5.38;;;8.10;99.90;;;;;;5055900;28;20523;-77
2021/03/04 09:18:41;;;;;;;3.80;3.25;;;8.20;99.90;;;;;;5055970;28;20255;-77
2021/03/04 09:21:10;;;;;;;9.43;4.13;;;8.40;99.90;;;;;;5056014;28;20159;-75
2021/03/04 09:23:36;;;;;;;6.72;3.72;;;8.30;99.90;;;;;;5055822;28;20167;-76
2021/03/04 09:26:02;;;;;;;1.02;1.00;;;8.20;99.90;;;;;;5055642;28;20273;-75
2021/03/04 09:28:28;;;;;;;11.30;3.33;;;8.30;99.90;;;;;;5061834;28;20246;-76
2021/03/04 09:30:53;;;;;;;16.17;4.70;;;8.30;99.90;;;;;;5064597;28;20182;-77
2021/03/04 09:33:26;;;;;;;11.57;3.90;;;8.50;99.90;;;;;;5066559;28;20159;-76
2021/03/04 09:36:03;;;;;;;8.88;4.63;;;8.50;99.90;;;;;;5060385;28;20163;-76
2021/03/04 09:38:32;;;;;;;5.30;4.28;;;8.40;99.90;;;;;;5060775;28;20236;-78
2021/03/04 09:41:15;;;;;;;3.50;2.55;;;8.10;99.90;;;;;;5076611;28;20517;-76
2021/03/04 09:43:46;;;;;;;4.40;3.80;;;8.20;99.90;;;;;;5073678;28;20749;-77
2021/03/04 09:46:33;;;;;;;21.40;5.20;;;8.20;99.90;;;;;;5055406;28;20265;-76
2021/03/04 09:49:16;;;;;;;9.88;4.38;;;8.40;99.90;;;;;;5055812;28;20261;-77
2021/03/04 09:51:43;;;;;;;13.85;4.65;;;8.40;99.90;;;;;;5055898;28;20675;-77
2021/03/04 09:54:10;;;;;;;2.78;1.38;;;8.50;99.90;;;;;;5071013;28;20174;-76
2021/03/04 09:56:36;;;;;;;10.40;3.83;;;8.40;99.90;;;;;;5075039;28;20236;-75
2021/03/04 09:59:03;;;;;;;3.70;1.55;;;8.20;99.90;;;;;;5075876;28;20210;-75
2021/03/04 10:01:33;;;;;;;2.63;2.42;;;8.20;99.90;;;;;;5075643;28;20224;-76
2021/03/04 10:04:04;;;;;;;0.80;0.80;;;8.00;99.90;;;;;;5075664;28;20184;-76
2021/03/04 10:06:38;;;;;;;0.82;0.77;;;7.80;99.90;;;;;;5038208;28;20199;-75
2021/03/04 10:09:07;;;;;;;4.88;1.85;;;7.90;99.90;;;;;;5038221;28;20188;-77
2021/03/04 10:11:38;;;;;;;1.13;1.13;;;7.80;99.90;;;;;;5034988;28;20619;-76
2021/03/04 10:14:11;;;;;;;2.97;1.77;;;7.70;99.90;;;;;;5039689;28;20183;-76
2021/03/04 10:16:37;;;;;;;12.63;3.40;;;7.70;99.90;;;;;;5054822;28;20312;-76
2021/03/04 10:19:05;;;;;;;5.07;2.30;;;7.90;99.90;;;;;;5055312;28;20259;-75
2021/03/04 10:21:31;;;;;;;3.15;2.88;;;8.10;99.90;;;;;;5055175;28;20160;-76
2021/03/04 10:23:56;;;;;;;2.35;2.25;;;8.00;99.90;;;;;;5068153;28;20300;-77
2021/03/04 10:26:22;;;;;;;4.13;1.45;;;8.00;99.90;;;;;;5075106;28;20186;-77
2021/03/04 10:28:48;;;;;;;2.15;1.33;;;8.30;99.90;;;;;;5075097;28;20170;-77
2021/03/04 10:31:13;;;;;;;6.20;2.95;;;8.30;99.90;;;;;;5075393;28;20208;-77
2021/03/04 10:33:39;;;;;;;0.47;0.47;;;8.20;99.90;;;;;;5074236;28;20633;-77
2021/03/04 10:36:05;;;;;;;1.25;1.17;;;8.00;99.90;;;;;;5064949;28;20671;-78
2021/03/04 10:38:31;;;;;;;2.20;1.85;;;7.90;99.90;;;;;;5055168;28;20557;-78
2021/03/04 10:40:56;;;;;;;2.00;1.88;;;7.90;99.90;;;;;;5054386;28;20260;-77
2021/03/04 10:43:22;;;;;;;1.35;1.35;;;8.10;99.90;;;;;;5054505;28;20195;-77
2021/03/04 10:45:47;;;;;;;2.78;2.03;;;8.30;99.90;;;;;;5054458;28;20546;-76
2021/03/04 10:48:13;;;;;;;0.65;0.65;;;8.20;99.90;;;;;;5055888;28;20160;-78
2021/03/04 10:50:39;;;;;;;2.22;1.58;;;8.10;99.90;;;;;;5053900;28;20167;-77
2021/03/04 10:53:05;;;;;;;0.40;0.40;;;8.30;99.90;;;;;;5057075;28;20177;-78
2021/03/04 10:55:31;;;;;;;0.98;0.98;;;8.40;99.90;;;;;;5053881;28;20242;-76
2021/03/04 10:57:57;;;;;;;11.77;3.40;;;8.40;99.90;;;;;;5053182;28;20231;-77
2021/03/04 11:00:23;;;;;;;0.98;0.85;;;8.50;99.90;;;;;;5053621;28;20178;-78
2021/03/04 11:02:49;;;;;;;1.65;0.60;;;8.60;99.90;;;;;;5054156;28;20171;-76
2021/03/04 11:05:15;;;;;;;7.82;2.22;;;8.70;99.90;;;;;;5053389;28;20173;-76
2021/03/04 11:07:40;;;;;;;1.23;1.23;;;8.60;99.90;;;;;;5054038;28;20198;-76
2021/03/04 11:10:08;;;;;;;1.13;1.02;;;8.50;99.90;;;;;;5053361;28;20167;-77
2021/03/04 11:12:34;;;;;;;1.40;0.65;;;8.60;99.90;;;;;;5053740;28;20190;-77
2021/03/04 11:15:00;;;;;;;1.42;1.42;;;8.60;99.90;;;;;;5052420;28;20155;-77
2021/03/04 11:17:26;;;;;;;2.70;2.28;;;8.50;99.90;;;;;;5052815;28;20298;-77
2021/03/04 11:19:51;;;;;;;1.67;1.58;;;8.60;99.90;;;;;;5053265;28;20241;-77
2021/03/04 11:22:17;;;;;;;10.95;1.67;;;8.60;99.90;;;;;;5053661;28;20178;-78
2021/03/04 11:24:46;;;;;;;1.95;1.52;;;8.80;99.90;;;;;;5053848;28;20140;-78
2021/03/04 11:27:13;;;;;;;1.13;1.02;;;8.80;99.90;;;;;;5053045;28;20314;-78
2021/03/04 11:29:38;;;;;;;4.22;1.67;;;8.90;99.90;;;;;;5065681;28;20166;-77
2021/03/04 11:32:04;;;;;;;1.20;1.20;;;8.90;99.90;;;;;;5052378;28;20229;-77
2021/03/04 11:34:30;;;;;;;4.32;1.65;;;9.10;99.90;;;;;;5053312;28;20513;-77
2021/03/04 11:36:55;;;;;;;1.35;0.95;;;8.90;99.90;;;;;;5052148;28;20199;-77
2021/03/04 11:39:21;;;;;;;6.82;1.52;;;9.00;99.90;;;;;;5053263;28;20171;-77
2021/03/04 11:41:47;;;;;;;0.98;0.98;;;9.00;99.90;;;;;;5052985;28;20489;-77
2021/03/04 11:44:13;;;;;;;2.80;1.45;;;8.80;99.90;;;;;;5052774;28;20179;-78
2021/03/04 11:46:40;;;;;;;0.28;0.28;;;8.80;99.90;;;;;;5052773;28;20198;-78
2021/03/04 11:49:05;;;;;;;1.20;0.88;;;8.70;99.90;;;;;;5052881;28;20690;-77
2021/03/04 11:51:31;;;;;;;2.67;2.30;;;8.70;99.90;;;;;;5052774;28;20238;-78
2021/03/04 11:53:57;;;;;;;2.58;1.95;;;8.70;99.90;;;;;;5052541;28;20171;-78
2021/03/04 11:56:23;;;;;;;1.15;0.65;;;8.60;99.90;;;;;;5052715;28;20191;-78
2021/03/04 11:58:50;;;;;;;1.95;1.23;;;8.50;99.90;;;;;;5056069;28;20242;-77
2021/03/04 12:01:16;;;;;;;0.47;0.47;;;8.60;99.90;;;;;;5061364;28;20182;-79
2021/03/04 12:03:42;;;;;;;1.10;0.57;;;8.60;99.90;;;;;;5065745;28;20290;-78
2021/03/04 12:06:07;;;;;;;7.22;1.52;;;8.70;99.90;;;;;;5059949;28;20607;-78
2021/03/04 12:08:33;;;;;;;1.73;1.60;;;8.90;99.90;;;;;;5073295;28;20235;-76
2021/03/04 12:10:58;;;;;;;1.05;1.05;;;8.90;99.90;;;;;;5073414;28;20224;-77
2021/03/04 12:13:30;;;;;;;2.08;1.92;;;9.00;99.90;;;;;;5072930;28;20181;-78
2021/03/04 12:15:57;;;;;;;3.33;2.92;;;9.20;99.90;;;;;;5072806;28;20205;-77
2021/03/04 12:18:22;;;;;;;1.30;1.20;;;9.10;99.90;;;;;;5073187;28;20263;-77
2021/03/04 12:20:50;;;;;;;0.70;0.70;;;8.90;99.90;;;;;;5072849;28;20519;-77
2021/03/04 12:23:15;;;;;;;0.90;0.90;;;8.70;99.90;;;;;;5073004;28;20167;-76
2021/03/04 12:25:41;;;;;;;2.28;2.10;;;8.60;99.90;;;;;;5073033;28;20508;-77
2021/03/04 12:28:07;;;;;;;1.17;1.08;;;8.30;99.90;;;;;;5055360;28;20608;-77
2021/03/04 12:30:32;;;;;;;3.63;2.35;;;8.10;99.90;;;;;;5072460;28;20167;-77
2021/03/04 12:32:58;;;;;;;3.20;1.30;;;8.10;99.90;;;;;;5072986;28;20527;-77
2021/03/04 12:35:23;;;;;;;1.60;1.27;;;8.10;99.90;;;;;;5072896;28;20224;-77
2021/03/04 12:37:49;;;;;;;5.72;2.95;;;8.20;99.90;;;;;;5073074;28;20228;-77
2021/03/04 12:40:15;;;;;;;4.38;2.45;;;8.40;99.90;;;;;;5053840;28;20179;-77
2021/03/04 12:42:40;;;;;;;5.93;2.20;;;8.50;99.90;;;;;;5037081;28;20175;-77
2021/03/04 12:45:07;;;;;;;3.58;3.25;;;8.40;99.90;;;;;;5057097;28;20159;-77
2021/03/04 12:47:33;;;;;;;4.80;2.90;;;8.20;99.90;;;;;;5056869;28;20199;-77
2021/03/04 12:50:02;;;;;;;2.13;1.98;;;8.30;99.90;;;;;;5056903;28;20566;-77
2021/03/04 12:52:28;;;;;;;1.73;1.63;;;8.20;99.90;;;;;;5059350;28;20183;-76